EST,Max TemperatureF,Mean TemperatureF,Min TemperatureF,Max Dew PointF,MeanDew PointF,Min DewpointF,Max Humidity, Mean Humidity, Min Humidity, Max Sea Level PressureIn, Mean Sea Level PressureIn, Min Sea Level PressureIn, Max VisibilityMiles, Mean VisibilityMiles, Min VisibilityMiles, Max Wind SpeedMPH, Mean Wind SpeedMPH, Max Gust SpeedMPH,PrecipitationIn, CloudCover, Events, WindDirDegrees
2013-1-1,32,28,24,25,17,14,80,70,64,30.09,30.06,30.01,10,9,6,17,11,,0.00,8,Snow,323
2013-1-2,23,21,19,18,16,14,86,78,68,30.20,30.17,30.11,10,8,5,13,10,,0.00,7,Snow,232
2013-1-3,30,22,14,25,18,9,86,72,59,30.16,30.12,30.06,10,8,6,17,13,25,0.00,7,,244
2013-1-4,30,28,26,21,18,18,74,66,60,30.19,30.14,30.08,20,11,10,23,18,37,0.00,1,,250
2013-1-5,37,32,28,25,23,21,80,68,60,30.32,30.21,30.11,10,7,3,17,11,17,0.00,7,,208
2013-1-6,39,36,33,32,30,21,93,80,52,30.17,30.03,29.94,7,5,3,18,14,21,0.00,8,Snow,253
2013-1-7,37,34,32,30,26,23,87,74,56,30.42,30.32,30.22,10,7,5,16,10,23,0.00,3,,209
2013-1-8,44,36,28,28,25,21,80,61,39,30.29,30.27,30.25,10,8,7,14,11,,0.00,4,,190
2013-1-9,48,44,39,36,31,27,76,61,49,30.43,30.23,30.13,20,15,7,18,13,29,0.00,3,,250
2013-1-10,42,35,28,28,27,25,93,65,49,30.59,30.45,30.25,20,15,10,15,8,,0.00,6,,141
2013-1-11,57,52,46,52,45,30,88,79,53,30.02,29.93,29.82,15,9,3,20,13,32,0.00,6,Rain,187
2013-1-12,62,58,53,54,52,50,88,80,68,30.01,29.97,29.92,15,11,10,17,12,18,0.00,7,,195
2013-1-13,66,54,39,57,45,37,94,88,73,29.91,29.85,29.75,10,5,2,21,12,34,0.00,8,Rain,257
2013-1-14,33,30,28,25,21,21,75,70,60,30.41,30.35,30.24,10,8,7,17,11,29,0.00,7,,298
2013-1-15,32,30,28,23,22,19,80,74,64,30.40,30.30,30.15,10,10,7,12,9,,0.00,7,,48
2013-1-16,35,32,30,25,22,19,75,63,52,29.97,29.91,29.87,10,10,10,16,9,23,0.00,6,,223
2013-1-17,37,34,28,30,25,18,81,71,56,30.20,30.14,30.08,20,14,7,17,13,32,0.00,7,,293
2013-1-18,37,29,23,18,16,12,69,54,45,30.45,30.29,30.06,20,14,7,22,14,36,0.00,5,Snow,223
2013-1-19,53,46,39,27,24,19,46,39,30,30.03,29.89,29.71,20,14,10,21,16,32,0.00,5,,227
2013-1-20,32,28,23,19,14,10,69,61,54,30.14,30.08,29.87,20,9,5,23,19,41,0.00,8,Snow,287
2013-1-21,24,20,14,16,11,7,93,68,50,30.03,29.97,29.91,10,6,1,21,13,32,0.00,8,Snow,252
2013-1-22,12,9,8,5,2,-11,79,73,37,30.24,30.21,30.15,6,4,2,23,17,34,0.00,8,Snow,275
2013-1-23,15,12,10,12,9,7,86,80,73,30.24,30.16,30.07,5,2,0,18,12,,0.00,8,Snow,236
2013-1-24,21,16,10,14,5,-2,80,61,46,30.54,30.47,30.27,20,15,10,16,11,21,0.00,6,,7
2013-1-25,19,17,15,16,11,5,86,75,62,30.31,30.12,30.02,10,6,2,16,10,,0.00,8,Snow,171
2013-1-26,26,24,23,23,20,18,93,82,74,30.42,30.28,30.11,7,5,2,16,10,21,0.00,8,Snow,280
2013-1-27,30,20,10,27,17,9,93,68,55,30.49,30.40,30.28,20,10,2,18,9,,0.00,7,Rain-Snow,166
2013-1-28,50,44,39,46,40,32,93,81,61,30.03,29.98,29.92,6,3,1,20,16,29,0.00,8,Rain,227
2013-1-29,62,55,48,55,52,46,94,84,68,29.95,29.83,29.66,10,5,1,17,13,29,0.00,7,Rain,195
2013-1-30,66,56,41,54,50,37,94,77,64,29.44,29.29,29.16,10,8,2,23,18,37,0.00,7,Rain,220
2013-1-31,30,27,23,23,17,10,86,68,54,29.83,29.68,29.52,7,5,2,21,18,44,0.00,8,Snow,268